Time;durP1;ratioP1;P1;durP2;ratioP2;P2;SDS_P1;SDS_P2;PMS_P1;PMS_P2;Temp;Humidity;BMP_temperature;BMP_pressure;BME280_temperature;BME280_humidity;BME280_pressure;Samples;Min_cycle;Max_cycle;Signal;HPM_P1;HPM_P2
2021/12/25 09:52:05;;;;;;;20.58;14.30;;;;;;;;;;6215656;22;20044;-83
2021/12/25 09:54:31;;;;;;;18.95;13.43;;;;;;;;;;6246948;23;20012;-82
2021/12/25 09:56:58;;;;;;;19.48;14.07;;;;;;;;;;6220277;23;20008;-83
2021/12/25 09:59:24;;;;;;;18.83;14.18;;;;;;;;;;6220318;23;20001;-83
2021/12/25 10:01:55;;;;;;;18.15;14.15;;;;;;;;;;6220177;23;20004;-82
2021/12/25 10:04:40;;;;;;;21.95;14.68;;;;;;;;;;6220172;23;20004;-84
2021/12/25 10:07:25;;;;;;;18.60;13.23;;;;;;;;;;6247438;23;20056;-82
2021/12/25 10:10:16;;;;;;;21.80;14.95;;;;;;;;;;6247191;23;20004;-82
2021/12/25 10:12:48;;;;;;;20.02;13.98;;;;;;;;;;6217424;23;20028;-92
2021/12/25 10:15:20;;;;;;;17.70;13.27;;;;;;;;;;6247106;23;20053;-84
2021/12/25 10:17:52;;;;;;;22.27;16.15;;;;;;;;;;6247657;23;20094;-84
2021/12/25 10:20:26;;;;;;;20.02;14.38;;;;;;;;;;6220719;23;20457;-85
2021/12/25 10:23:15;;;;;;;18.20;14.30;;;;;;;;;;6247707;23;20027;-82
2021/12/25 10:25:44;;;;;;;18.33;14.20;;;;;;;;;;6247377;23;20335;-87
2021/12/25 10:28:10;;;;;;;18.85;13.55;;;;;;;;;;6247683;23;20031;-88
2021/12/25 10:30:46;;;;;;;17.10;12.52;;;;;;;;;;6220654;23;20007;-84
2021/12/25 10:33:22;;;;;;;20.35;14.43;;;;;;;;;;6247406;23;20016;-88
2021/12/25 10:35:48;;;;;;;19.90;13.88;;;;;;;;;;6247068;23;19996;-82
2021/12/25 10:38:13;;;;;;;20.45;15.05;;;;;;;;;;6246944;23;20011;-83
2021/12/25 10:40:39;;;;;;;23.67;15.07;;;;;;;;;;6247096;23;20028;-85
2021/12/25 10:43:19;;;;;;;24.00;15.07;;;;;;;;;;6247324;23;20428;-87
2021/12/25 10:45:58;;;;;;;23.48;15.93;;;;;;;;;;6247294;23;20008;-83
2021/12/25 10:48:29;;;;;;;34.47;23.02;;;;;;;;;;6219788;23;20058;-83
2021/12/25 10:50:55;;;;;;;33.55;21.92;;;;;;;;;;6246734;23;20067;-84
2021/12/25 10:53:23;;;;;;;26.23;18.02;;;;;;;;;;6219709;23;20031;-83
2021/12/25 10:55:49;;;;;;;18.95;14.40;;;;;;;;;;6246988;23;20374;-82
2021/12/25 10:58:23;;;;;;;20.85;14.43;;;;;;;;;;6246849;23;20004;-84
2021/12/25 11:00:55;;;;;;;23.40;16.52;;;;;;;;;;6246385;23;20015;-85
2021/12/25 11:03:33;;;;;;;20.23;15.00;;;;;;;;;;6246684;23;20003;-85
2021/12/25 11:06:18;;;;;;;21.65;15.10;;;;;;;;;;6246733;23;20004;-84
2021/12/25 11:08:45;;;;;;;23.05;16.45;;;;;;;;;;6247295;23;20007;-83
2021/12/25 11:11:17;;;;;;;22.10;15.93;;;;;;;;;;6219797;23;20431;-88
2021/12/25 11:13:44;;;;;;;23.42;16.58;;;;;;;;;;6247046;23;20000;-87
2021/12/25 11:16:37;;;;;;;27.08;17.25;;;;;;;;;;6222360;23;20012;-87
2021/12/25 11:19:14;;;;;;;22.90;17.17;;;;;;;;;;6124744;23;20049;-84
2021/12/25 11:21:52;;;;;;;30.55;21.70;;;;;;;;;;6125010;23;20010;-83
2021/12/25 11:24:21;;;;;;;33.05;22.73;;;;;;;;;;6124252;23;20133;-83
2021/12/25 11:26:52;;;;;;;25.83;18.05;;;;;;;;;;6124668;23;20429;-83
2021/12/25 11:29:20;;;;;;;24.13;17.88;;;;;;;;;;6124673;23;20002;-84
2021/12/25 11:31:48;;;;;;;27.00;19.00;;;;;;;;;;6124435;23;20010;-83
2021/12/25 11:34:14;;;;;;;23.65;18.75;;;;;;;;;;6124406;23;20084;-84
2021/12/25 11:36:43;;;;;;;25.90;18.50;;;;;;;;;;6124562;23;20033;-82
2021/12/25 11:39:08;;;;;;;25.33;17.45;;;;;;;;;;6125536;23;20429;-82
2021/12/25 11:41:35;;;;;;;23.73;17.10;;;;;;;;;;6125781;23;20093;-81
2021/12/25 11:44:05;;;;;;;26.40;17.58;;;;;;;;;;6099665;23;20009;-82
2021/12/25 11:46:38;;;;;;;;;;;;;;;;;;6125130;23;20010;-83
2021/12/25 11:49:07;;;;;;;29.60;21.40;;;;;;;;;;6100673;23;19948;-82
2021/12/25 11:51:33;;;;;;;27.42;20.55;;;;;;;;;;6125216;23;20018;-83
2021/12/25 11:59:08;;;;;;;25.90;19.58;;;;;;;;;;6253973;23;20018;-82
2021/12/25 12:01:44;;;;;;;25.23;18.23;;;;;;;;;;6248308;23;20031;-83
2021/12/25 12:04:10;;;;;;;25.17;18.63;;;;;;;;;;6248473;23;20399;-88
2021/12/25 12:06:47;;;;;;;26.77;21.13;;;;;;;;;;6248595;23;20008;-88
2021/12/25 12:09:23;;;;;;;26.20;19.67;;;;;;;;;;6248612;23;20438;-82
2021/12/25 12:12:13;;;;;;;29.95;21.25;;;;;;;;;;6249005;23;19999;-85
2021/12/25 12:14:39;;;;;;;28.33;21.95;;;;;;;;;;6233683;23;20004;-86
2021/12/25 12:17:25;;;;;;;25.92;19.00;;;;;;;;;;6248654;23;20011;-85
2021/12/25 12:19:52;;;;;;;22.73;15.93;;;;;;;;;;6222577;23;20036;-86
2021/12/25 12:27:37;;;;;;;25.05;17.02;;;;;;;;;;6249339;23;20012;-84
2021/12/25 12:30:11;;;;;;;23.38;16.17;;;;;;;;;;6248507;23;19996;-83
2021/12/25 12:32:44;;;;;;;27.63;17.90;;;;;;;;;;6223562;23;20058;-91
2021/12/25 12:35:31;;;;;;;21.30;15.05;;;;;;;;;;6248309;23;20423;-83
2021/12/25 12:38:25;;;;;;;21.50;15.43;;;;;;;;;;6248336;23;20008;-88
2021/12/25 12:41:15;;;;;;;18.35;13.77;;;;;;;;;;6221461;23;20005;-83
2021/12/25 12:43:56;;;;;;;18.75;13.07;;;;;;;;;;6248420;23;20067;-83
2021/12/25 12:46:43;;;;;;;15.18;12.13;;;;;;;;;;6248922;23;20032;-83
2021/12/25 12:49:08;;;;;;;14.63;11.10;;;;;;;;;;6205805;23;20036;-96
2021/12/25 12:51:37;;;;;;;15.38;12.10;;;;;;;;;;6248094;23;20019;-84
2021/12/25 12:54:03;;;;;;;15.20;11.98;;;;;;;;;;6221418;23;20083;-82
2021/12/25 12:56:29;;;;;;;15.10;12.02;;;;;;;;;;6249134;23;20011;-92
2021/12/25 12:58:57;;;;;;;15.73;12.40;;;;;;;;;;6222177;23;20420;-83
2021/12/25 13:01:24;;;;;;;15.35;11.52;;;;;;;;;;6222296;23;20058;-83
2021/12/25 13:04:02;;;;;;;16.23;13.10;;;;;;;;;;6248272;23;19997;-82
2021/12/25 13:06:32;;;;;;;16.10;11.20;;;;;;;;;;6197111;23;20012;-93
2021/12/25 13:09:13;;;;;;;14.55;11.15;;;;;;;;;;6248160;23;20031;-82
2021/12/25 13:11:57;;;;;;;14.00;10.30;;;;;;;;;;6247990;23;20071;-82
2021/12/25 13:14:23;;;;;;;14.73;10.88;;;;;;;;;;6247867;23;20067;-82
2021/12/25 13:16:48;;;;;;;16.25;11.50;;;;;;;;;;6247953;23;20414;-82
2021/12/25 13:19:14;;;;;;;13.88;10.98;;;;;;;;;;6221670;23;20077;-90
2021/12/25 13:21:39;;;;;;;17.10;10.57;;;;;;;;;;6248270;23;20000;-81
2021/12/25 13:24:14;;;;;;;14.90;10.63;;;;;;;;;;6248118;23;20054;-89
2021/12/25 13:26:47;;;;;;;14.27;10.52;;;;;;;;;;6248285;23;20008;-82
2021/12/25 13:29:18;;;;;;;17.10;12.30;;;;;;;;;;6247930;23;20004;-82
2021/12/25 13:31:44;;;;;;;17.08;12.40;;;;;;;;;;6247634;23;20001;-82
2021/12/25 13:34:13;;;;;;;22.50;14.20;;;;;;;;;;6248147;23;19996;-82
2021/12/25 13:36:41;;;;;;;40.13;19.38;;;;;;;;;;6247928;23;20032;-91
2021/12/25 13:39:13;;;;;;;27.27;15.98;;;;;;;;;;6248458;23;20502;-83
2021/12/25 13:41:52;;;;;;;26.85;18.45;;;;;;;;;;6247846;23;20054;-83
2021/12/25 13:44:30;;;;;;;19.30;13.63;;;;;;;;;;6248469;23;20372;-81
2021/12/25 13:46:55;;;;;;;17.63;12.50;;;;;;;;;;6248160;23;20008;-95
2021/12/25 13:49:27;;;;;;;18.33;11.68;;;;;;;;;;6247953;23;20058;-83
2021/12/25 13:51:53;;;;;;;15.50;10.40;;;;;;;;;;6248149;23;20083;-84
2021/12/25 13:54:20;;;;;;;16.23;10.82;;;;;;;;;;6247388;23;20134;-83
2021/12/25 13:56:47;;;;;;;15.68;10.85;;;;;;;;;;6247529;23;20004;-90
2021/12/25 18:04:03;;;;;;;41.58;24.20;;;;;;;;;;6240671;22;20082;-83
2021/12/25 18:06:29;;;;;;;40.45;25.63;;;;;;;;;;6220504;23;20324;-84
2021/12/25 18:08:55;;;;;;;39.22;24.85;;;;;;;;;;6220836;23;20004;-83
2021/12/25 18:11:22;;;;;;;41.70;25.52;;;;;;;;;;6247706;23;20008;-83
2021/12/25 18:13:49;;;;;;;41.17;26.42;;;;;;;;;;6247161;23;20004;-82
2021/12/25 18:16:14;;;;;;;44.13;25.58;;;;;;;;;;6247956;23;20000;-83
2021/12/25 18:18:39;;;;;;;41.63;26.77;;;;;;;;;;6247304;23;20011;-82
2021/12/25 18:21:05;;;;;;;45.80;27.38;;;;;;;;;;6247389;23;20004;-83
2021/12/25 18:23:31;;;;;;;46.85;28.60;;;;;;;;;;6247506;23;20153;-85
2021/12/25 18:25:57;;;;;;;54.92;32.53;;;;;;;;;;6247123;23;20008;-82
2021/12/25 18:28:26;;;;;;;46.40;27.65;;;;;;;;;;6247154;23;20011;-83
2021/12/25 18:30:52;;;;;;;49.23;29.33;;;;;;;;;;6247370;23;20000;-84
2021/12/25 18:33:18;;;;;;;47.03;30.10;;;;;;;;;;6247546;23;20058;-84
2021/12/25 18:35:44;;;;;;;47.42;28.98;;;;;;;;;;6220347;23;20083;-81
2021/12/25 18:38:10;;;;;;;43.47;26.83;;;;;;;;;;6247357;23;20000;-81
2021/12/25 18:40:37;;;;;;;46.95;28.13;;;;;;;;;;6247270;23;20007;-84
2021/12/25 18:43:03;;;;;;;45.80;28.25;;;;;;;;;;6247520;23;20404;-84
2021/12/25 18:45:29;;;;;;;47.65;29.10;;;;;;;;;;6247670;23;20008;-84
2021/12/25 18:47:54;;;;;;;47.25;29.27;;;;;;;;;;6247199;23;20011;-82
2021/12/25 18:50:22;;;;;;;49.00;29.15;;;;;;;;;;6247834;23;20492;-84
2021/12/25 18:52:55;;;;;;;52.80;29.27;;;;;;;;;;6247569;23;20000;-83
2021/12/25 18:55:22;;;;;;;51.65;28.60;;;;;;;;;;6247345;23;20004;-86
2021/12/25 18:57:49;;;;;;;45.88;28.40;;;;;;;;;;6220679;23;20038;-90
2021/12/25 19:00:18;;;;;;;51.72;28.77;;;;;;;;;;6247214;23;20331;-85
2021/12/25 19:02:45;;;;;;;50.17;29.60;;;;;;;;;;6247194;23;20491;-82
2021/12/25 19:05:12;;;;;;;51.67;29.40;;;;;;;;;;6246754;23;20023;-83
2021/12/25 19:07:38;;;;;;;51.38;30.45;;;;;;;;;;6220015;23;20027;-83
2021/12/25 19:10:05;;;;;;;51.55;29.23;;;;;;;;;;6246604;23;19996;-83
2021/12/25 19:12:34;;;;;;;54.45;30.90;;;;;;;;;;6247044;23;20079;-82
2021/12/25 19:15:00;;;;;;;50.50;30.17;;;;;;;;;;6246635;23;20083;-83
2021/12/25 19:17:26;;;;;;;52.15;30.33;;;;;;;;;;6246677;23;20007;-81
2021/12/25 19:19:52;;;;;;;49.88;30.05;;;;;;;;;;6247101;23;20004;-82
2021/12/25 19:22:17;;;;;;;53.58;32.22;;;;;;;;;;6246622;23;20002;-83
2021/12/25 19:24:43;;;;;;;50.42;29.13;;;;;;;;;;6246532;23;20335;-83
2021/12/25 19:27:08;;;;;;;53.90;31.98;;;;;;;;;;6246728;23;20375;-82
2021/12/25 19:29:34;;;;;;;55.60;31.63;;;;;;;;;;6219880;23;20004;-82
2021/12/25 19:31:59;;;;;;;50.92;30.30;;;;;;;;;;6246617;23;20450;-81
2021/12/25 19:34:25;;;;;;;49.72;29.50;;;;;;;;;;6246637;23;20477;-83
2021/12/25 19:36:50;;;;;;;51.60;31.73;;;;;;;;;;6246788;23;20078;-81
2021/12/25 19:39:16;;;;;;;54.08;31.48;;;;;;;;;;6246886;23;20086;-85
2021/12/25 19:41:44;;;;;;;58.08;32.13;;;;;;;;;;6246767;23;20026;-83
2021/12/25 19:44:09;;;;;;;50.78;30.55;;;;;;;;;;6246633;23;20031;-83
2021/12/25 19:46:35;;;;;;;58.45;33.13;;;;;;;;;;6246477;23;20004;-82
2021/12/25 19:49:03;;;;;;;54.15;33.58;;;;;;;;;;6246976;23;20004;-82
2021/12/25 19:51:30;;;;;;;62.05;36.05;;;;;;;;;;6220009;23;20011;-83
2021/12/25 19:53:57;;;;;;;61.53;35.42;;;;;;;;;;6246510;23;20005;-84
2021/12/25 19:56:23;;;;;;;57.10;34.22;;;;;;;;;;6246892;23;20015;-82
2021/12/25 19:58:49;;;;;;;61.90;35.78;;;;;;;;;;6246642;23;20000;-83
2021/12/25 20:01:20;;;;;;;59.35;35.17;;;;;;;;;;6219542;23;20087;-83
2021/12/25 20:03:45;;;;;;;53.25;34.00;;;;;;;;;;6219453;23;20312;-82
2021/12/25 20:06:14;;;;;;;57.45;35.22;;;;;;;;;;6246522;23;20005;-82
2021/12/25 20:08:41;;;;;;;56.20;33.53;;;;;;;;;;6246530;23;20015;-83
2021/12/25 20:11:09;;;;;;;57.53;33.60;;;;;;;;;;6219465;23;20004;-82
2021/12/25 20:13:35;;;;;;;58.35;31.73;;;;;;;;;;6246717;23;20320;-82
2021/12/25 20:16:04;;;;;;;56.22;34.30;;;;;;;;;;6246500;23;20434;-82
2021/12/25 20:18:30;;;;;;;55.90;31.75;;;;;;;;;;6246540;23;20466;-82
2021/12/25 20:20:56;;;;;;;60.92;32.15;;;;;;;;;;6246302;23;19996;-81
2021/12/25 20:23:22;;;;;;;54.83;32.50;;;;;;;;;;6249002;23;20415;-81
2021/12/25 20:25:48;;;;;;;52.97;31.05;;;;;;;;;;6248624;23;20054;-81
2021/12/25 20:28:14;;;;;;;53.78;31.10;;;;;;;;;;6248413;23;20430;-81
2021/12/25 20:30:41;;;;;;;52.30;29.25;;;;;;;;;;6248486;23;20004;-82
2021/12/25 20:33:06;;;;;;;52.03;30.80;;;;;;;;;;6249321;23;20004;-83
2021/12/25 20:35:32;;;;;;;54.70;30.85;;;;;;;;;;6250052;23;20077;-82
2021/12/25 20:37:58;;;;;;;51.53;30.05;;;;;;;;;;6249153;23;20087;-88
2021/12/25 20:40:29;;;;;;;55.33;31.58;;;;;;;;;;6248791;23;20005;-83
2021/12/25 20:42:58;;;;;;;44.42;25.92;;;;;;;;;;6248345;23;20000;-82
2021/12/25 20:48:08;;;;;;;43.58;25.80;;;;;;;;;;6248713;23;20133;-82
2021/12/25 20:50:35;;;;;;;40.38;23.67;;;;;;;;;;6222786;23;20008;-84
2021/12/25 20:53:02;;;;;;;40.28;23.90;;;;;;;;;;6248541;23;20004;-87
2021/12/25 20:55:28;;;;;;;47.78;27.55;;;;;;;;;;6248395;23;20435;-83
2021/12/25 20:57:53;;;;;;;41.30;24.52;;;;;;;;;;6248508;23;20001;-86
2021/12/25 21:00:20;;;;;;;45.28;26.35;;;;;;;;;;6249025;23;20419;-84
2021/12/25 21:02:46;;;;;;;44.95;24.15;;;;;;;;;;6248394;23;20015;-83
2021/12/25 21:05:14;;;;;;;45.42;26.00;;;;;;;;;;6247942;23;20016;-83
2021/12/25 21:07:42;;;;;;;41.38;24.92;;;;;;;;;;6248426;23;20026;-84
2021/12/25 21:10:09;;;;;;;43.30;27.17;;;;;;;;;;6247954;23;20000;-83
2021/12/25 21:12:35;;;;;;;44.92;27.38;;;;;;;;;;6248276;23;20447;-83
2021/12/25 21:15:00;;;;;;;43.53;26.60;;;;;;;;;;6247871;23;20004;-83
2021/12/25 21:17:26;;;;;;;42.58;26.55;;;;;;;;;;6220903;23;20058;-86
2021/12/25 21:19:52;;;;;;;41.92;26.23;;;;;;;;;;6248378;23;20008;-83
2021/12/25 21:22:18;;;;;;;46.58;27.02;;;;;;;;;;6247729;23;20023;-84
2021/12/25 21:24:43;;;;;;;47.72;27.00;;;;;;;;;;6248126;23;20000;-85
2021/12/25 21:27:09;;;;;;;45.65;26.65;;;;;;;;;;6247690;23;20022;-85
2021/12/25 21:29:35;;;;;;;42.13;27.25;;;;;;;;;;6248099;23;20093;-84
2021/12/25 21:32:00;;;;;;;41.88;27.38;;;;;;;;;;6221241;23;20008;-84
2021/12/25 21:34:26;;;;;;;44.63;28.55;;;;;;;;;;6248038;23;20040;-83
2021/12/25 21:36:51;;;;;;;43.65;26.50;;;;;;;;;;6247775;23;20009;-85
2021/12/25 21:39:17;;;;;;;48.67;29.10;;;;;;;;;;6248123;23;20001;-84
2021/12/25 21:41:43;;;;;;;45.47;27.42;;;;;;;;;;6220848;23;20004;-85
2021/12/25 21:44:08;;;;;;;39.60;25.90;;;;;;;;;;6247954;23;20000;-84
2021/12/25 21:46:35;;;;;;;38.67;25.17;;;;;;;;;;6248177;23;20058;-86
2021/12/25 21:49:02;;;;;;;41.38;25.63;;;;;;;;;;6248279;23;20004;-84
2021/12/25 21:51:27;;;;;;;45.97;27.33;;;;;;;;;;6221071;23;20000;-84
2021/12/25 21:53:53;;;;;;;39.47;26.33;;;;;;;;;;6221116;23;20011;-85
2021/12/25 21:56:18;;;;;;;37.13;24.70;;;;;;;;;;6247889;23;20008;-84
2021/12/25 21:58:47;;;;;;;40.53;25.23;;;;;;;;;;6247720;23;20324;-87
2021/12/25 22:01:15;;;;;;;35.97;23.48;;;;;;;;;;6221188;23;20091;-84
2021/12/25 22:03:42;;;;;;;42.20;25.85;;;;;;;;;;6221707;23;20004;-86
2021/12/25 22:06:08;;;;;;;42.53;26.85;;;;;;;;;;6247466;23;20039;-85
2021/12/25 22:08:36;;;;;;;46.80;28.85;;;;;;;;;;6247863;23;20305;-84
2021/12/25 22:11:06;;;;;;;45.33;29.42;;;;;;;;;;6247186;23;20434;-85
2021/12/25 22:13:33;;;;;;;47.80;28.52;;;;;;;;;;6247680;23;20035;-83
2021/12/25 22:15:59;;;;;;;48.33;31.05;;;;;;;;;;6247632;23;20518;-84
2021/12/25 22:18:25;;;;;;;47.47;28.73;;;;;;;;;;6247205;23;20032;-84
2021/12/25 22:20:51;;;;;;;50.42;31.98;;;;;;;;;;6247529;23;20024;-84
2021/12/25 22:23:19;;;;;;;48.95;30.88;;;;;;;;;;6220709;23;20488;-88
2021/12/25 22:25:46;;;;;;;53.70;32.72;;;;;;;;;;6220613;23;20008;-87
2021/12/25 22:28:12;;;;;;;48.50;29.80;;;;;;;;;;6220652;23;20083;-87
2021/12/25 22:30:38;;;;;;;45.72;29.70;;;;;;;;;;6248211;23;20007;-88
2021/12/25 22:33:05;;;;;;;44.53;27.30;;;;;;;;;;6248142;23;19996;-87
2021/12/25 22:35:31;;;;;;;47.75;29.23;;;;;;;;;;6247379;23;20008;-87
2021/12/25 22:38:00;;;;;;;43.17;26.60;;;;;;;;;;6247635;23;20075;-86
2021/12/25 22:40:28;;;;;;;36.83;23.10;;;;;;;;;;6220743;23;20004;-86
